Time;durP1;ratioP1;P1;durP2;ratioP2;P2;SDS_P1;SDS_P2;PMS_P1;PMS_P2;Temp;Humidity;BMP_temperature;BMP_pressure;BME280_temperature;BME280_humidity;BME280_pressure;Samples;Min_cycle;Max_cycle;Signal;HPM_P1;HPM_P2
2024/04/15 00:00:16;;;;;;;13.20;3.83;;;7.50;1.00;;;;;;7379464;19;20018;-64
2024/04/15 00:02:45;;;;;;;10.32;3.33;;;7.50;1.00;;;;;;7383323;19;20709;-64
2024/04/15 00:05:11;;;;;;;10.18;3.40;;;7.40;1.00;;;;;;7379913;19;20034;-65
2024/04/15 00:07:37;;;;;;;10.82;4.05;;;7.40;1.00;;;;;;7384200;19;20378;-64
2024/04/15 00:10:04;;;;;;;9.43;3.00;;;7.40;1.00;;;;;;7378598;19;20486;-64
2024/04/15 00:12:30;;;;;;;7.85;3.03;;;7.30;1.00;;;;;;7382137;19;20034;-64
2024/04/15 00:14:56;;;;;;;8.35;2.78;;;7.30;1.00;;;;;;7381435;19;20015;-64
2024/04/15 00:17:22;;;;;;;11.25;3.55;;;7.30;13.60;;;;;;7381881;19;20014;-64
2024/04/15 00:19:52;;;;;;;11.63;3.20;;;7.20;13.80;;;;;;7380593;19;20490;-64
2024/04/15 00:22:18;;;;;;;10.35;3.88;;;7.20;14.10;;;;;;7381157;19;20437;-64
2024/04/15 00:24:44;;;;;;;12.82;4.20;;;7.10;1.00;;;;;;7380649;19;20021;-64
2024/04/15 00:27:10;;;;;;;9.15;3.35;;;7.00;1.00;;;;;;7381625;19;20105;-63
2024/04/15 00:29:36;;;;;;;7.38;2.97;;;7.00;1.00;;;;;;7383616;19;20090;-63
2024/04/15 00:32:03;;;;;;;10.27;3.17;;;7.00;1.00;;;;;;7378997;19;20097;-64
2024/04/15 00:34:29;;;;;;;11.88;3.28;;;6.90;1.00;;;;;;7380844;19;20029;-63
2024/04/15 00:36:55;;;;;;;13.43;3.40;;;6.90;1.00;;;;;;7378413;19;20092;-62
2024/04/15 00:39:21;;;;;;;13.05;3.42;;;6.90;1.00;;;;;;7378795;19;20745;-63
2024/04/15 00:41:47;;;;;;;10.75;3.10;;;6.90;1.00;;;;;;7383311;19;20030;-63
2024/04/15 00:44:17;;;;;;;12.02;3.35;;;6.90;3.00;;;;;;7379926;19;20098;-63
2024/04/15 00:46:43;;;;;;;10.65;3.58;;;6.90;1.20;;;;;;7380184;19;20057;-64
2024/04/15 00:49:12;;;;;;;14.15;3.47;;;6.80;3.50;;;;;;7382710;19;20117;-63
2024/04/15 00:51:42;;;;;;;9.68;3.00;;;6.70;26.30;;;;;;7379351;19;20019;-63
2024/04/15 00:54:10;;;;;;;7.75;3.30;;;6.60;16.90;;;;;;7382888;19;20022;-64
2024/04/15 00:56:36;;;;;;;10.40;3.05;;;6.60;52.20;;;;;;7377918;19;20098;-64
2024/04/15 00:59:04;;;;;;;11.73;3.35;;;6.50;48.70;;;;;;7380292;19;20895;-63
2024/04/15 01:01:30;;;;;;;13.30;3.72;;;6.40;63.30;;;;;;7378141;19;20022;-63
2024/04/15 01:03:56;;;;;;;13.77;3.85;;;6.40;31.80;;;;;;7376256;19;20025;-63
2024/04/15 01:06:24;;;;;;;10.30;3.40;;;6.40;43.80;;;;;;7378151;19;20026;-63
2024/04/15 01:08:50;;;;;;;12.90;3.92;;;6.40;91.80;;;;;;7377382;19;20073;-63
2024/04/15 01:11:25;;;;;;;10.63;4.32;;;6.30;93.70;;;;;;7379201;19;20026;-64
2024/04/15 01:13:51;;;;;;;11.52;3.30;;;6.30;98.30;;;;;;7382708;19;20089;-64
2024/04/15 01:16:18;;;;;;;11.38;3.40;;;6.30;64.60;;;;;;7378560;19;20053;-64
2024/04/15 01:18:44;;;;;;;11.30;3.90;;;6.30;54.70;;;;;;7383025;19;20089;-64
2024/04/15 01:21:10;;;;;;;10.55;4.00;;;6.30;73.50;;;;;;7378318;19;20343;-64
2024/04/15 01:23:38;;;;;;;10.57;3.33;;;6.30;73.50;;;;;;7378284;19;20082;-63
2024/04/15 01:26:07;;;;;;;8.25;3.10;;;6.20;85.50;;;;;;7379003;19;20025;-64
2024/04/15 01:28:35;;;;;;;12.07;3.70;;;6.20;91.80;;;;;;7379325;19;20081;-63
2024/04/15 01:31:01;;;;;;;10.85;3.90;;;6.10;64.00;;;;;;7377698;19;20019;-63
2024/04/15 01:33:27;;;;;;;13.93;3.80;;;6.00;99.90;;;;;;7382766;19;20053;-63
2024/04/15 01:35:53;;;;;;;12.40;3.53;;;6.00;99.90;;;;;;7377088;19;20014;-63
2024/04/15 01:38:21;;;;;;;11.43;3.88;;;6.00;99.90;;;;;;7379980;19;20662;-63
2024/04/15 01:40:48;;;;;;;9.30;4.18;;;5.90;99.90;;;;;;7380139;19;20019;-63
2024/04/15 01:43:14;;;;;;;8.73;3.90;;;5.90;99.90;;;;;;7380000;19;20026;-64
2024/04/15 01:45:40;;;;;;;12.68;3.90;;;5.90;99.90;;;;;;7372761;19;20097;-64
2024/04/15 01:48:06;;;;;;;7.22;3.38;;;5.90;99.90;;;;;;7379711;19;20015;-63
2024/04/15 01:50:33;;;;;;;8.57;3.95;;;5.80;99.90;;;;;;7380779;19;20367;-63
2024/04/15 01:52:59;;;;;;;7.65;3.55;;;5.80;99.90;;;;;;7376166;19;20019;-63
2024/04/15 01:55:28;;;;;;;10.93;4.15;;;5.80;99.90;;;;;;7379751;19;20047;-63
2024/04/15 01:57:54;;;;;;;11.02;3.95;;;5.70;99.90;;;;;;7378416;19;20019;-64
2024/04/15 02:00:21;;;;;;;11.30;3.72;;;5.70;99.90;;;;;;7378637;19;20015;-64
2024/04/15 02:02:47;;;;;;;12.80;4.45;;;5.70;99.90;;;;;;7378330;19;20023;-64
2024/04/15 02:05:13;;;;;;;8.48;3.40;;;5.60;99.90;;;;;;7376091;19;20019;-64
2024/04/15 02:07:40;;;;;;;11.77;3.58;;;5.60;99.90;;;;;;7375762;19;20514;-62
2024/04/15 02:10:06;;;;;;;9.32;3.42;;;5.60;99.90;;;;;;7377186;19;20024;-63
2024/04/15 02:12:32;;;;;;;9.60;3.53;;;5.70;99.90;;;;;;7375043;19;20022;-63
2024/04/15 02:14:59;;;;;;;8.52;3.63;;;5.70;99.90;;;;;;7377273;19;20014;-63
2024/04/15 02:17:25;;;;;;;9.18;3.47;;;5.70;99.90;;;;;;7379878;19;20035;-63
2024/04/15 02:19:52;;;;;;;11.73;3.85;;;5.80;99.90;;;;;;7376477;19;21006;-64
2024/04/15 02:22:18;;;;;;;8.63;3.70;;;5.80;99.90;;;;;;7378692;19;20041;-63
2024/04/15 02:24:44;;;;;;;13.57;4.28;;;5.90;99.90;;;;;;7376719;19;20437;-64
2024/04/15 02:27:10;;;;;;;9.70;3.78;;;5.80;99.90;;;;;;7374016;19;20098;-63
2024/04/15 02:29:36;;;;;;;9.93;3.55;;;5.90;99.90;;;;;;7379328;19;20106;-64
2024/04/15 02:32:03;;;;;;;11.00;3.63;;;5.90;99.90;;;;;;7368663;19;20023;-63
2024/04/15 02:34:29;;;;;;;6.28;3.20;;;5.90;99.90;;;;;;7373898;19;20044;-64
2024/04/15 02:36:55;;;;;;;8.98;3.45;;;5.90;99.90;;;;;;7377906;19;20037;-63
2024/04/15 02:39:21;;;;;;;9.88;3.65;;;6.00;99.90;;;;;;7377418;19;20022;-64
2024/04/15 02:41:48;;;;;;;15.05;4.35;;;6.00;99.90;;;;;;7376438;19;20022;-62
2024/04/15 02:44:14;;;;;;;8.95;3.33;;;6.00;99.90;;;;;;7376727;19;20035;-63
2024/04/15 02:46:41;;;;;;;13.82;3.50;;;6.10;99.90;;;;;;7378435;19;20051;-63
2024/04/15 02:49:07;;;;;;;11.80;4.00;;;6.20;99.90;;;;;;7376178;19;20014;-63
2024/04/15 02:51:34;;;;;;;9.63;3.60;;;6.20;99.90;;;;;;7379193;19;20015;-63
2024/04/15 02:54:01;;;;;;;10.20;3.65;;;6.30;99.90;;;;;;7377576;19;20093;-63
2024/04/15 02:56:27;;;;;;;11.23;3.95;;;6.30;99.90;;;;;;7379056;19;20519;-63
2024/04/15 02:58:53;;;;;;;6.63;3.38;;;6.40;99.90;;;;;;7374757;19;20517;-63
2024/04/15 03:01:20;;;;;;;13.15;4.60;;;6.40;99.90;;;;;;7377694;19;20092;-63
2024/04/15 03:03:46;;;;;;;12.60;4.03;;;6.50;99.90;;;;;;7376345;19;20018;-63
2024/04/15 03:06:33;;;;;;;10.50;3.95;;;6.50;99.90;;;;;;7376319;19;20011;-63
2024/04/15 03:08:59;;;;;;;11.25;3.42;;;6.50;99.90;;;;;;7378427;19;20034;-63
2024/04/15 03:11:25;;;;;;;9.80;2.67;;;6.50;99.90;;;;;;7377450;19;20022;-63
2024/04/15 03:13:52;;;;;;;9.73;3.05;;;6.60;99.90;;;;;;7375555;19;20022;-64
2024/04/15 03:16:38;;;;;;;8.63;3.53;;;6.60;99.90;;;;;;7374815;19;20026;-64
2024/04/15 03:19:04;;;;;;;10.75;3.55;;;6.60;99.90;;;;;;7377651;19;20025;-64
2024/04/15 03:21:31;;;;;;;8.95;3.03;;;6.60;99.90;;;;;;7376283;19;20018;-63
2024/04/15 03:24:02;;;;;;;9.13;3.30;;;6.60;99.90;;;;;;7373553;19;20018;-63
2024/04/15 03:26:28;;;;;;;10.20;3.40;;;6.60;99.90;;;;;;7386149;19;20608;-63
2024/04/15 03:28:54;;;;;;;10.40;3.95;;;6.70;99.90;;;;;;7389923;19;20029;-63
2024/04/15 03:31:21;;;;;;;9.68;3.53;;;6.60;99.90;;;;;;7389542;19;20482;-64
2024/04/15 03:33:47;;;;;;;8.50;3.22;;;6.70;99.90;;;;;;7391231;19;20090;-63
2024/04/15 03:36:13;;;;;;;7.55;3.30;;;6.70;98.30;;;;;;7387826;19;20029;-63
2024/04/15 03:38:41;;;;;;;7.88;3.70;;;6.70;99.90;;;;;;7389374;19;20022;-64
2024/04/15 03:41:08;;;;;;;8.27;3.38;;;6.80;99.90;;;;;;7389957;19;20021;-63
2024/04/15 03:43:38;;;;;;;8.98;2.90;;;6.80;96.70;;;;;;7387806;19;20018;-64
2024/04/15 03:46:05;;;;;;;7.50;3.42;;;6.80;87.50;;;;;;7387421;19;20015;-65
2024/04/15 03:48:31;;;;;;;9.50;3.08;;;6.90;95.10;;;;;;7391642;19;20011;-64
2024/04/15 03:51:18;;;;;;;8.23;3.75;;;6.90;78.90;;;;;;7388087;19;20306;-64
2024/04/15 03:53:44;;;;;;;6.88;3.33;;;6.90;88.80;;;;;;7388900;19;20485;-64
2024/04/15 03:56:10;;;;;;;10.32;4.10;;;6.90;70.80;;;;;;7388285;19;20015;-65
2024/04/15 03:58:55;;;;;;;10.50;3.88;;;7.00;83.00;;;;;;7390959;19;20474;-64
2024/04/15 04:01:22;;;;;;;8.88;3.17;;;7.00;80.90;;;;;;7388627;19;20074;-64
2024/04/15 04:04:03;;;;;;;;;;;7.00;66.40;;;;;;7389667;19;20018;-63
2024/04/15 04:06:30;;;;;;;7.03;3.03;;;7.00;72.10;;;;;;7389004;19;19922;-64
2024/04/15 04:08:58;;;;;;;8.50;3.20;;;7.00;73.80;;;;;;7387145;19;20038;-64
2024/04/15 04:11:27;;;;;;;9.60;3.15;;;7.10;86.10;;;;;;7389276;19;20363;-64
2024/04/15 04:13:53;;;;;;;13.20;3.65;;;7.10;93.50;;;;;;7388458;19;20022;-64
2024/04/15 04:16:21;;;;;;;8.07;3.38;;;7.10;90.20;;;;;;7388048;19;20022;-64
2024/04/15 04:18:47;;;;;;;11.02;3.65;;;7.10;90.40;;;;;;7390257;19;20022;-63
2024/04/15 04:21:33;;;;;;;8.20;2.92;;;7.10;86.40;;;;;;7388993;19;20074;-64
2024/04/15 04:23:59;;;;;;;8.48;3.33;;;7.00;83.60;;;;;;7387143;19;20407;-62
2024/04/15 04:26:26;;;;;;;11.77;3.47;;;7.00;85.40;;;;;;7391519;19;20021;-63
2024/04/15 04:28:53;;;;;;;9.73;3.42;;;7.00;67.10;;;;;;7385981;19;20022;-63
2024/04/15 04:31:19;;;;;;;9.57;2.85;;;6.90;93.00;;;;;;7385244;19;20514;-65
2024/04/15 04:33:45;;;;;;;8.77;3.40;;;6.90;92.20;;;;;;7389924;19;20365;-63
2024/04/15 04:36:17;;;;;;;9.40;3.80;;;6.80;99.90;;;;;;7386214;19;20462;-62
2024/04/15 04:38:43;;;;;;;8.80;4.25;;;6.80;99.90;;;;;;7381393;19;20122;-62
2024/04/15 04:41:10;;;;;;;8.88;3.83;;;6.80;99.90;;;;;;7384988;19;20006;-64
2024/04/15 04:43:36;;;;;;;14.10;3.80;;;6.70;99.90;;;;;;7382846;19;20645;-64
2024/04/15 04:46:09;;;;;;;7.20;3.47;;;6.70;99.90;;;;;;7383907;19;20022;-64
2024/04/15 04:48:35;;;;;;;10.13;3.92;;;6.70;99.90;;;;;;7384164;19;20661;-64
2024/04/15 04:51:09;;;;;;;9.23;3.38;;;6.70;99.90;;;;;;7381913;19;20860;-64
2024/04/15 04:53:36;;;;;;;13.60;4.13;;;6.70;99.90;;;;;;7383821;19;20041;-64
2024/04/15 04:56:15;;;;;;;11.52;4.22;;;6.60;99.90;;;;;;7380149;19;20749;-68
2024/04/15 04:58:42;;;;;;;10.15;3.75;;;6.70;99.90;;;;;;7380560;19;20374;-66
2024/04/15 05:01:13;;;;;;;8.88;4.28;;;6.70;99.90;;;;;;7380992;19;20058;-64
2024/04/15 05:03:51;;;;;;;11.45;4.15;;;6.60;99.90;;;;;;7379277;19;20092;-64
2024/04/15 05:06:18;;;;;;;14.68;4.40;;;6.60;99.90;;;;;;7381143;19;20077;-64
2024/04/15 05:08:46;;;;;;;10.55;3.92;;;6.60;99.90;;;;;;7380269;19;20022;-63
2024/04/15 05:11:13;;;;;;;9.68;4.13;;;6.60;99.90;;;;;;7381315;19;20692;-63
2024/04/15 05:13:42;;;;;;;11.25;4.68;;;6.60;99.90;;;;;;7377289;19;20018;-63
2024/04/15 05:16:10;;;;;;;12.52;5.38;;;6.70;99.90;;;;;;7376385;19;20015;-63
2024/04/15 05:18:40;;;;;;;8.90;4.38;;;6.70;99.90;;;;;;7376186;19;20584;-64
2024/04/15 05:21:16;;;;;;;9.90;4.43;;;6.70;99.90;;;;;;7374809;19;20033;-63
2024/04/15 05:23:43;;;;;;;13.43;4.97;;;6.70;99.90;;;;;;7379664;19;20486;-64
2024/04/15 05:26:09;;;;;;;11.40;4.97;;;6.70;99.90;;;;;;7378959;19;20120;-63
2024/04/15 05:28:36;;;;;;;12.15;4.82;;;6.70;99.90;;;;;;7371829;19;20026;-64
2024/04/15 05:31:04;;;;;;;14.27;4.82;;;6.70;99.90;;;;;;7379467;19;20019;-62
2024/04/15 05:33:30;;;;;;;9.25;5.07;;;6.70;99.90;;;;;;7377837;19;20022;-62
2024/04/15 05:35:56;;;;;;;12.43;4.80;;;6.80;99.90;;;;;;7381455;19;20018;-61
2024/04/15 05:38:24;;;;;;;15.50;5.78;;;6.80;99.90;;;;;;7380965;19;20382;-62
2024/04/15 05:40:50;;;;;;;10.73;5.72;;;6.80;99.90;;;;;;7381019;19;20018;-62
2024/04/15 05:43:16;;;;;;;15.45;5.25;;;6.90;99.90;;;;;;7380834;19;20789;-65
2024/04/15 05:45:45;;;;;;;10.27;5.50;;;6.90;99.90;;;;;;7378427;19;20485;-63
2024/04/15 05:48:15;;;;;;;14.20;5.28;;;7.00;99.90;;;;;;7376693;19;20019;-63
2024/04/15 05:50:41;;;;;;;11.88;5.07;;;7.20;99.90;;;;;;7377625;19;20018;-63
2024/04/15 05:53:08;;;;;;;13.13;5.75;;;7.50;99.90;;;;;;7381339;19;20011;-61
2024/04/15 05:55:35;;;;;;;17.23;5.50;;;7.70;99.90;;;;;;7378061;19;20017;-61
2024/04/15 05:58:01;;;;;;;11.98;4.82;;;7.90;99.90;;;;;;7378952;19;20374;-62
2024/04/15 06:00:28;;;;;;;11.45;4.97;;;8.10;99.90;;;;;;7378286;19;20022;-63
2024/04/15 06:02:54;;;;;;;14.93;5.15;;;8.20;99.90;;;;;;7382574;19;20043;-62
2024/04/15 06:05:23;;;;;;;12.95;5.15;;;8.30;99.90;;;;;;7375441;19;20055;-63
2024/04/15 06:07:49;;;;;;;11.10;5.45;;;8.40;99.90;;;;;;7378800;19;20025;-63
2024/04/15 06:10:15;;;;;;;13.65;5.07;;;8.50;99.90;;;;;;7376814;19;20037;-63
2024/04/15 06:12:41;;;;;;;14.20;5.70;;;8.60;99.90;;;;;;7378979;19;20017;-63
2024/04/15 06:15:07;;;;;;;12.48;5.22;;;8.50;99.90;;;;;;7376167;19;20019;-60
2024/04/15 06:17:33;;;;;;;14.52;5.47;;;8.50;99.90;;;;;;7378340;19;20014;-63
2024/04/15 06:20:00;;;;;;;13.48;5.50;;;8.50;99.90;;;;;;7375996;19;20490;-62
2024/04/15 06:22:26;;;;;;;11.30;6.03;;;8.50;99.90;;;;;;7380356;19;20525;-62
2024/04/15 06:24:52;;;;;;;10.05;5.57;;;8.60;99.90;;;;;;7375053;19;20106;-63
2024/04/15 06:27:18;;;;;;;11.77;5.65;;;8.60;99.90;;;;;;7376083;19;20026;-63
2024/04/15 06:29:44;;;;;;;15.23;6.40;;;8.60;99.90;;;;;;7377507;19;20044;-63
2024/04/15 06:32:10;;;;;;;13.15;5.82;;;8.60;99.90;;;;;;7377180;19;20014;-63
2024/04/15 06:34:37;;;;;;;13.10;6.60;;;8.60;99.90;;;;;;7378607;19;20022;-63
2024/04/15 06:37:03;;;;;;;13.73;6.15;;;8.60;99.90;;;;;;7379300;19;20030;-63
2024/04/15 06:39:29;;;;;;;15.90;6.63;;;8.70;99.90;;;;;;7378575;19;20010;-63
2024/04/15 06:41:55;;;;;;;19.05;6.03;;;8.90;99.90;;;;;;7379080;19;20018;-63
2024/04/15 06:44:21;;;;;;;13.40;5.88;;;9.00;99.90;;;;;;7376533;19;20052;-62
2024/04/15 06:46:48;;;;;;;14.80;5.82;;;9.10;99.90;;;;;;7375955;19;20022;-64
2024/04/15 06:49:14;;;;;;;13.20;5.70;;;9.10;99.90;;;;;;7379045;19;20010;-62
2024/04/15 06:51:40;;;;;;;16.35;5.72;;;9.10;99.90;;;;;;7377329;19;20022;-63
2024/04/15 06:54:08;;;;;;;15.07;6.55;;;9.10;92.20;;;;;;7377301;19;20022;-62
2024/04/15 06:56:36;;;;;;;15.98;5.90;;;9.10;84.20;;;;;;7378322;19;20015;-63
2024/04/15 06:59:03;;;;;;;15.85;5.90;;;9.00;75.60;;;;;;7377160;19;20468;-63
2024/04/15 07:01:33;;;;;;;13.23;5.13;;;9.10;84.40;;;;;;7375766;19;20095;-62
2024/04/15 07:03:59;;;;;;;14.15;5.50;;;9.10;85.60;;;;;;7376479;19;20015;-62
2024/04/15 07:06:26;;;;;;;12.38;5.95;;;9.20;51.10;;;;;;7377824;19;20022;-63
2024/04/15 07:08:53;;;;;;;13.98;6.32;;;9.30;41.40;;;;;;7377613;19;20014;-63
2024/04/15 07:11:19;;;;;;;16.35;5.72;;;9.40;12.90;;;;;;7378082;19;20014;-63
2024/04/15 07:13:45;;;;;;;13.65;6.03;;;9.40;1.00;;;;;;7377171;19;20023;-62
2024/04/15 07:16:11;;;;;;;13.05;5.05;;;9.50;1.00;;;;;;7371236;19;20017;-65
2024/04/15 07:18:37;;;;;;;13.55;4.80;;;9.50;1.00;;;;;;7378084;19;20095;-63
2024/04/15 07:21:03;;;;;;;13.55;5.22;;;9.60;1.00;;;;;;7377773;19;20018;-64
2024/04/15 07:23:30;;;;;;;10.75;5.40;;;10.00;1.00;;;;;;7377861;19;20015;-62
2024/04/15 07:26:00;;;;;;;10.27;5.32;;;10.70;1.00;;;;;;7377335;19;20015;-62
2024/04/15 07:28:27;;;;;;;13.23;4.22;;;11.40;99.90;;;;;;7378721;19;20036;-62
2024/04/15 07:31:01;;;;;;;16.27;5.93;;;11.90;98.10;;;;;;7378705;19;20014;-62
2024/04/15 07:33:27;;;;;;;10.90;4.78;;;11.80;99.90;;;;;;7376148;19;20497;-63
2024/04/15 07:36:00;;;;;;;15.80;4.75;;;11.90;99.90;;;;;;7376146;19;20094;-63
2024/04/15 07:38:27;;;;;;;12.60;4.35;;;11.70;99.90;;;;;;7374072;19;20077;-64
2024/04/15 07:40:56;;;;;;;9.80;4.55;;;11.30;1.00;;;;;;7377758;19;20013;-64
2024/04/15 07:43:22;;;;;;;12.85;5.07;;;11.30;99.90;;;;;;7375491;19;20014;-64
2024/04/15 07:45:48;;;;;;;11.77;5.25;;;11.30;99.90;;;;;;7375818;19;20010;-64
2024/04/15 07:48:15;;;;;;;30.15;19.20;;;11.30;99.90;;;;;;7375721;19;20368;-62
2024/04/15 07:50:42;;;;;;;34.33;23.77;;;11.60;99.90;;;;;;7374882;19;20026;-66
2024/04/15 07:53:09;;;;;;;12.73;5.85;;;11.80;99.90;;;;;;7375539;19;20019;-66
2024/04/15 07:55:35;;;;;;;11.27;5.32;;;12.00;1.00;;;;;;7376996;19;20022;-64
2024/04/15 07:58:02;;;;;;;15.27;5.47;;;12.00;99.90;;;;;;7376590;19;20022;-65
2024/04/15 08:00:28;;;;;;;20.48;5.88;;;12.00;99.90;;;;;;7374469;19;20014;-65
2024/04/15 08:02:54;;;;;;;15.73;6.30;;;11.80;99.90;;;;;;7375221;19;20014;-65
2024/04/15 08:05:21;;;;;;;14.20;6.32;;;11.60;99.90;;;;;;7372926;19;20483;-65
2024/04/15 08:07:51;;;;;;;14.90;8.35;;;11.60;99.90;;;;;;7377144;19;20022;-65
2024/04/15 08:10:18;;;;;;;16.38;7.22;;;11.60;99.90;;;;;;7375957;19;20086;-68
2024/04/15 08:12:44;;;;;;;17.52;6.38;;;11.60;99.90;;;;;;7382006;19;20046;-64
2024/04/15 08:15:11;;;;;;;12.75;6.00;;;11.60;44.80;;;;;;7380811;19;20021;-65
2024/04/15 08:17:37;;;;;;;13.35;5.72;;;11.60;77.20;;;;;;7383237;19;20019;-65
2024/04/15 08:20:05;;;;;;;9.93;4.75;;;11.60;1.00;;;;;;7383715;19;20042;-65
2024/04/15 08:22:33;;;;;;;10.57;5.18;;;12.10;1.00;;;;;;7384058;19;20055;-65
2024/04/15 08:24:59;;;;;;;10.45;5.03;;;12.20;1.00;;;;;;7382145;19;20777;-65
2024/04/15 08:27:26;;;;;;;11.38;4.47;;;12.50;1.00;;;;;;7379444;19;20047;-65
2024/04/15 08:29:53;;;;;;;7.95;3.88;;;13.10;99.90;;;;;;7381161;19;20567;-65
2024/04/15 08:32:19;;;;;;;8.38;4.55;;;13.50;99.90;;;;;;7382585;19;20015;-68
2024/04/15 08:34:46;;;;;;;11.05;3.05;;;13.40;99.90;;;;;;7382747;19;20556;-65
2024/04/15 08:37:13;;;;;;;12.90;3.80;;;13.10;96.00;;;;;;7379046;19;20588;-64
2024/04/15 08:39:40;;;;;;;10.88;3.60;;;12.50;92.70;;;;;;7381907;19;20018;-65
2024/04/15 08:42:28;;;;;;;10.88;3.80;;;12.40;99.90;;;;;;7382402;19;20022;-64
2024/04/15 08:44:55;;;;;;;10.30;4.40;;;12.20;99.90;;;;;;7379275;19;20026;-66
2024/04/15 08:47:33;;;;;;;10.35;4.30;;;12.20;99.90;;;;;;7373809;19;20040;-65
2024/04/15 08:50:00;;;;;;;11.25;4.30;;;12.70;99.90;;;;;;7384287;19;20018;-62
2024/04/15 08:52:26;;;;;;;10.65;4.55;;;12.90;99.90;;;;;;7383734;19;20027;-62
2024/04/15 08:54:53;;;;;;;11.60;4.65;;;13.10;99.90;;;;;;7385180;19;20056;-62
2024/04/15 08:57:20;;;;;;;9.38;4.90;;;12.80;99.90;;;;;;7380764;19;20010;-65
2024/04/15 08:59:49;;;;;;;10.43;4.18;;;12.60;99.90;;;;;;7379576;19;20015;-64
2024/04/15 09:02:17;;;;;;;9.68;4.53;;;12.70;99.90;;;;;;7376914;19;20049;-64
2024/04/15 09:04:43;;;;;;;10.75;4.90;;;12.70;99.90;;;;;;7378858;19;20801;-62
2024/04/15 09:07:10;;;;;;;11.48;4.75;;;13.20;99.90;;;;;;7382207;19;20015;-63
2024/04/15 09:09:37;;;;;;;12.27;4.25;;;13.60;99.90;;;;;;7384785;19;20032;-63
2024/04/15 09:12:04;;;;;;;11.63;4.28;;;13.50;79.60;;;;;;7383988;19;20478;-63
2024/04/15 09:14:30;;;;;;;10.10;4.00;;;13.40;41.50;;;;;;7384414;19;20018;-65
2024/04/15 09:16:56;;;;;;;11.45;2.80;;;13.30;31.50;;;;;;7380155;19;20171;-63
2024/04/15 09:19:23;;;;;;;11.15;2.88;;;13.20;1.00;;;;;;7381065;19;20018;-63
2024/04/15 09:21:49;;;;;;;13.02;3.72;;;13.20;1.00;;;;;;7379642;19;20789;-63
2024/04/15 09:24:16;;;;;;;9.85;4.00;;;13.10;1.00;;;;;;7380497;19;20029;-65
2024/04/15 09:26:43;;;;;;;7.72;3.00;;;13.30;11.60;;;;;;7382314;19;20549;-63
2024/04/15 09:29:09;;;;;;;9.80;2.75;;;13.40;1.00;;;;;;7382889;19;20033;-63
2024/04/15 09:31:37;;;;;;;8.48;2.92;;;13.30;1.00;;;;;;7380524;19;20014;-63
2024/04/15 09:34:04;;;;;;;7.43;3.10;;;13.20;1.00;;;;;;7379703;19;20014;-67
2024/04/15 09:36:33;;;;;;;5.47;2.50;;;13.20;1.00;;;;;;7381929;19;20021;-62
2024/04/15 09:39:01;;;;;;;7.78;2.70;;;13.00;1.00;;;;;;7381541;19;20010;-62
2024/04/15 09:41:27;;;;;;;6.75;2.50;;;12.80;1.00;;;;;;7383431;19;20029;-62
2024/04/15 09:43:54;;;;;;;9.27;2.85;;;12.70;1.00;;;;;;7381090;19;20014;-63
2024/04/15 09:46:20;;;;;;;7.75;2.67;;;12.60;1.00;;;;;;7381931;19;20025;-62
2024/04/15 09:48:48;;;;;;;6.47;2.30;;;12.70;1.00;;;;;;7384229;19;20014;-63
2024/04/15 09:51:22;;;;;;;8.63;2.40;;;13.10;1.00;;;;;;7381206;19;20014;-63
2024/04/15 09:53:54;;;;;;;7.78;2.65;;;13.10;1.00;;;;;;7382170;19;20010;-63
2024/04/15 09:56:25;;;;;;;5.18;2.22;;;12.80;1.00;;;;;;7380334;19;20038;-63
2024/04/15 09:58:55;;;;;;;;;;;12.70;1.00;;;;;;7382565;19;20037;-63
2024/04/15 10:01:31;;;;;;;7.70;2.00;;;12.50;1.00;;;;;;7379518;19;19927;-63
2024/04/15 10:04:02;;;;;;;4.25;1.65;;;12.40;1.00;;;;;;7379664;19;20700;-63
2024/04/15 10:06:47;;;;;;;8.45;2.03;;;12.40;1.00;;;;;;7381252;19;20018;-63
2024/04/15 10:09:15;;;;;;;8.32;2.00;;;12.30;1.00;;;;;;7379268;19;20019;-64
2024/04/15 10:11:43;;;;;;;5.65;2.25;;;12.30;1.00;;;;;;7375215;19;20014;-63
2024/04/15 10:14:12;;;;;;;7.25;1.90;;;12.30;1.00;;;;;;7379788;19;20356;-63
2024/04/15 10:16:38;;;;;;;7.32;2.00;;;12.10;1.00;;;;;;7377789;19;20018;-63
2024/04/15 10:19:10;;;;;;;6.30;2.40;;;12.40;1.00;;;;;;7378825;19;20018;-63
2024/04/15 10:21:37;;;;;;;7.97;2.22;;;12.70;1.00;;;;;;7379756;19;20078;-62
2024/04/15 10:24:04;;;;;;;8.60;2.17;;;12.90;99.90;;;;;;7377376;19;20019;-64
2024/04/15 10:26:30;;;;;;;5.95;1.92;;;13.30;1.00;;;;;;7378701;19;20028;-62
2024/04/15 10:29:15;;;;;;;7.95;2.03;;;13.40;99.90;;;;;;7379596;19;20018;-62
2024/04/15 10:31:41;;;;;;;10.02;2.53;;;13.60;99.90;;;;;;7377261;19;20031;-63
2024/04/15 10:34:08;;;;;;;8.95;2.15;;;13.30;99.90;;;;;;7381571;19;20033;-63
2024/04/15 10:36:42;;;;;;;7.65;2.50;;;12.90;99.90;;;;;;7378045;19;20041;-63
2024/04/15 10:39:15;;;;;;;9.25;2.30;;;13.40;99.90;;;;;;7380855;19;20073;-63
2024/04/15 10:41:43;;;;;;;7.43;2.88;;;13.30;99.90;;;;;;7381020;19;20027;-63
2024/04/15 10:44:10;;;;;;;5.30;2.78;;;13.00;99.90;;;;;;7378741;19;20045;-62
2024/04/15 10:46:40;;;;;;;5.93;3.08;;;12.80;99.90;;;;;;7381058;19;20090;-62
2024/04/15 10:49:06;;;;;;;6.50;2.92;;;12.60;99.90;;;;;;7378765;19;20022;-64
2024/04/15 10:51:34;;;;;;;8.27;3.35;;;12.60;99.90;;;;;;7381236;19;20018;-63
2024/04/15 10:54:00;;;;;;;12.95;3.75;;;12.60;99.90;;;;;;7379632;19;20036;-64
2024/04/15 10:56:26;;;;;;;6.68;3.20;;;12.90;1.00;;;;;;7374661;19;20038;-62
2024/04/15 10:58:52;;;;;;;8.38;3.45;;;13.10;99.90;;;;;;7381017;19;20732;-63
2024/04/15 11:01:19;;;;;;;9.05;3.53;;;13.00;1.00;;;;;;7380795;19;20070;-63
2024/04/15 11:03:47;;;;;;;8.82;3.88;;;13.00;1.00;;;;;;7377894;19;20514;-63
2024/04/15 11:06:17;;;;;;;5.88;3.13;;;13.10;1.00;;;;;;7378790;19;20022;-63
2024/04/15 11:08:44;;;;;;;9.05;4.20;;;12.90;1.00;;;;;;7378981;19;20010;-64
2024/04/15 11:11:11;;;;;;;8.00;4.22;;;12.60;1.00;;;;;;7380324;19;20025;-64
2024/04/15 11:13:42;;;;;;;8.93;5.07;;;12.30;1.00;;;;;;7379949;19;20018;-63
2024/04/15 11:16:13;;;;;;;8.55;4.90;;;11.90;1.00;;;;;;7377280;19;20093;-61
2024/04/15 11:18:39;;;;;;;7.72;4.97;;;11.80;99.90;;;;;;7378818;19;20377;-62
2024/04/15 11:21:06;;;;;;;8.75;5.65;;;11.60;99.90;;;;;;7379169;19;20041;-63
2024/04/15 11:23:38;;;;;;;13.73;6.00;;;11.20;99.90;;;;;;7376946;19;20025;-63
2024/04/15 11:26:06;;;;;;;10.63;5.70;;;10.90;1.00;;;;;;7376327;19;20018;-63
2024/04/15 11:28:33;;;;;;;12.48;7.20;;;10.70;99.90;;;;;;7377442;19;20043;-67
2024/04/15 11:31:00;;;;;;;11.00;7.00;;;10.40;99.90;;;;;;7378755;19;20022;-64
2024/04/15 11:33:30;;;;;;;12.43;7.43;;;10.20;99.90;;;;;;7375782;19;20035;-65
2024/04/15 11:35:56;;;;;;;13.25;8.48;;;10.00;1.00;;;;;;7377233;19;20021;-64
2024/04/15 11:38:24;;;;;;;11.63;7.93;;;10.00;1.00;;;;;;7372908;19;20041;-64
2024/04/15 11:40:52;;;;;;;9.73;7.28;;;9.80;71.20;;;;;;7374011;19;20019;-65
2024/04/15 11:43:19;;;;;;;11.80;7.30;;;9.60;27.10;;;;;;7375686;19;20034;-64
2024/04/15 11:45:56;;;;;;;12.23;7.57;;;9.50;93.60;;;;;;7374612;19;20022;-65
2024/04/15 11:48:25;;;;;;;11.65;7.95;;;9.40;99.90;;;;;;7381636;19;20030;-63
2024/04/15 11:50:55;;;;;;;14.75;8.85;;;9.50;99.90;;;;;;7384818;19;20422;-62
2024/04/15 11:53:24;;;;;;;16.20;8.25;;;9.70;99.90;;;;;;7385627;19;20022;-63
2024/04/15 11:55:57;;;;;;;10.80;6.63;;;9.70;99.90;;;;;;7385572;19;20025;-63
2024/04/15 11:58:23;;;;;;;10.55;6.43;;;9.70;99.90;;;;;;7384234;19;20011;-64
2024/04/15 12:00:51;;;;;;;7.25;6.32;;;9.70;99.90;;;;;;7385636;19;20010;-65
2024/04/15 12:03:20;;;;;;;12.18;5.63;;;9.70;99.90;;;;;;7385038;19;20023;-63
2024/04/15 12:05:46;;;;;;;9.48;6.78;;;9.80;99.90;;;;;;7381049;19;20494;-62
2024/04/15 12:08:13;;;;;;;7.78;5.85;;;10.00;99.90;;;;;;7382563;19;20022;-63
2024/04/15 12:10:40;;;;;;;13.40;6.75;;;10.50;93.10;;;;;;7384536;19;20690;-63
2024/04/15 12:13:06;;;;;;;12.57;5.75;;;11.30;80.50;;;;;;7385973;19;20094;-64
2024/04/15 12:15:33;;;;;;;11.10;5.43;;;11.50;10.10;;;;;;7383632;19;20376;-62
2024/04/15 12:18:00;;;;;;;11.38;4.45;;;11.50;1.00;;;;;;7383154;19;20377;-65
2024/04/15 12:20:26;;;;;;;9.75;4.45;;;11.20;1.00;;;;;;7383762;19;20612;-64
2024/04/15 12:22:52;;;;;;;12.23;4.97;;;10.90;1.00;;;;;;7384442;19;20018;-64
2024/04/15 12:25:19;;;;;;;9.10;4.03;;;10.60;1.00;;;;;;7375996;19;20151;-64
2024/04/15 12:27:45;;;;;;;7.63;3.33;;;10.40;1.00;;;;;;7382198;19;20367;-66
2024/04/15 12:30:12;;;;;;;6.03;3.00;;;9.70;99.90;;;;;;7378393;19;20019;-65
2024/04/15 12:32:40;;;;;;;6.85;3.63;;;9.20;99.90;;;;;;7380843;19;20014;-64
2024/04/15 12:35:07;;;;;;;6.22;2.85;;;9.00;99.90;;;;;;7382458;19;20351;-64
2024/04/15 12:37:33;;;;;;;7.20;3.22;;;9.00;99.90;;;;;;7377880;19;20022;-66
2024/04/15 12:40:00;;;;;;;7.18;3.22;;;9.20;99.90;;;;;;7383024;19;20669;-65
2024/04/15 12:42:26;;;;;;;7.70;2.78;;;9.30;99.90;;;;;;7382942;19;20074;-65
2024/04/15 12:44:52;;;;;;;6.03;3.45;;;9.30;99.90;;;;;;7379737;19;20825;-65
2024/04/15 12:47:18;;;;;;;8.55;3.78;;;9.60;99.90;;;;;;7382865;19;20014;-65
2024/04/15 12:49:44;;;;;;;6.22;2.80;;;10.10;99.90;;;;;;7379449;19;20530;-65
2024/04/15 12:52:11;;;;;;;10.55;3.20;;;10.40;99.90;;;;;;7381255;19;20061;-65